sensor_id;sensor_type;location;lat;lon;timestamp;P1;durP1;ratioP1;P2;durP2;ratioP2
77206;SDS011;66190;50.708;7.906;2023-09-12T00:02:04;14.63;;;5.38;;
77206;SDS011;66190;50.708;7.906;2023-09-12T00:04:30;12.77;;;4.97;;
77206;SDS011;66190;50.708;7.906;2023-09-12T00:06:55;17.30;;;5.90;;
77206;SDS011;66190;50.708;7.906;2023-09-12T00:09:21;12.43;;;4.73;;
77206;SDS011;66190;50.708;7.906;2023-09-12T00:11:46;14.43;;;4.57;;
77206;SDS011;66190;50.708;7.906;2023-09-12T00:14:15;18.53;;;5.97;;
77206;SDS011;66190;50.708;7.906;2023-09-12T00:16:41;12.80;;;4.97;;
77206;SDS011;66190;50.708;7.906;2023-09-12T00:19:07;12.37;;;4.87;;
77206;SDS011;66190;50.708;7.906;2023-09-12T00:21:32;12.33;;;5.10;;
77206;SDS011;66190;50.708;7.906;2023-09-12T00:23:57;12.10;;;5.03;;
77206;SDS011;66190;50.708;7.906;2023-09-12T00:26:23;13.83;;;4.40;;
77206;SDS011;66190;50.708;7.906;2023-09-12T00:28:48;13.70;;;4.90;;
77206;SDS011;66190;50.708;7.906;2023-09-12T00:31:13;11.47;;;4.77;;
77206;SDS011;66190;50.708;7.906;2023-09-12T00:33:39;12.27;;;4.93;;
77206;SDS011;66190;50.708;7.906;2023-09-12T00:36:04;11.17;;;5.00;;
77206;SDS011;66190;50.708;7.906;2023-09-12T00:38:29;11.37;;;5.17;;
77206;SDS011;66190;50.708;7.906;2023-09-12T00:40:55;10.52;;;4.35;;
77206;SDS011;66190;50.708;7.906;2023-09-12T00:43:20;12.87;;;4.57;;
77206;SDS011;66190;50.708;7.906;2023-09-12T00:45:46;14.07;;;5.37;;
77206;SDS011;66190;50.708;7.906;2023-09-12T00:48:11;12.70;;;4.93;;
77206;SDS011;66190;50.708;7.906;2023-09-12T00:50:38;12.93;;;4.70;;
77206;SDS011;66190;50.708;7.906;2023-09-12T00:53:05;10.70;;;4.43;;
77206;SDS011;66190;50.708;7.906;2023-09-12T00:55:32;14.57;;;5.47;;
77206;SDS011;66190;50.708;7.906;2023-09-12T00:57:59;13.17;;;5.73;;
77206;SDS011;66190;50.708;7.906;2023-09-12T01:00:26;11.82;;;4.80;;
77206;SDS011;66190;50.708;7.906;2023-09-12T01:02:52;13.25;;;5.22;;
77206;SDS011;66190;50.708;7.906;2023-09-12T01:05:19;15.23;;;5.00;;
77206;SDS011;66190;50.708;7.906;2023-09-12T01:07:46;14.32;;;4.72;;
77206;SDS011;66190;50.708;7.906;2023-09-12T01:10:12;11.57;;;4.95;;
77206;SDS011;66190;50.708;7.906;2023-09-12T01:12:38;12.73;;;5.03;;
77206;SDS011;66190;50.708;7.906;2023-09-12T01:15:04;15.53;;;4.97;;
77206;SDS011;66190;50.708;7.906;2023-09-12T01:17:33;12.50;;;5.47;;
77206;SDS011;66190;50.708;7.906;2023-09-12T01:19:59;12.18;;;5.28;;
77206;SDS011;66190;50.708;7.906;2023-09-12T01:27:50;15.23;;;6.18;;
77206;SDS011;66190;50.708;7.906;2023-09-12T01:30:17;14.63;;;5.17;;
77206;SDS011;66190;50.708;7.906;2023-09-12T01:32:45;13.45;;;5.55;;
77206;SDS011;66190;50.708;7.906;2023-09-12T01:35:12;17.27;;;6.03;;
77206;SDS011;66190;50.708;7.906;2023-09-12T01:37:37;10.47;;;5.50;;
77206;SDS011;66190;50.708;7.906;2023-09-12T01:40:02;11.87;;;5.90;;
77206;SDS011;66190;50.708;7.906;2023-09-12T01:42:31;14.70;;;4.90;;
77206;SDS011;66190;50.708;7.906;2023-09-12T01:45:05;13.00;;;5.53;;
77206;SDS011;66190;50.708;7.906;2023-09-12T01:47:31;12.85;;;5.88;;
77206;SDS011;66190;50.708;7.906;2023-09-12T01:49:59;12.37;;;5.90;;
77206;SDS011;66190;50.708;7.906;2023-09-12T01:52:26;11.15;;;6.07;;
77206;SDS011;66190;50.708;7.906;2023-09-12T01:54:53;15.82;;;6.95;;
77206;SDS011;66190;50.708;7.906;2023-09-12T01:57:20;14.02;;;5.85;;
77206;SDS011;66190;50.708;7.906;2023-09-12T01:59:47;12.35;;;6.18;;
77206;SDS011;66190;50.708;7.906;2023-09-12T02:02:14;15.10;;;6.17;;
77206;SDS011;66190;50.708;7.906;2023-09-12T02:07:38;13.75;;;5.30;;
77206;SDS011;66190;50.708;7.906;2023-09-12T02:10:05;12.30;;;5.65;;
77206;SDS011;66190;50.708;7.906;2023-09-12T02:12:31;15.85;;;6.38;;
77206;SDS011;66190;50.708;7.906;2023-09-12T02:14:57;13.43;;;5.53;;
77206;SDS011;66190;50.708;7.906;2023-09-12T02:17:22;14.27;;;5.47;;
77206;SDS011;66190;50.708;7.906;2023-09-12T02:19:48;13.07;;;5.50;;
77206;SDS011;66190;50.708;7.906;2023-09-12T02:22:13;11.57;;;5.73;;
77206;SDS011;66190;50.708;7.906;2023-09-12T02:24:39;13.97;;;6.07;;
77206;SDS011;66190;50.708;7.906;2023-09-12T02:27:04;12.90;;;5.60;;
77206;SDS011;66190;50.708;7.906;2023-09-12T02:29:30;12.03;;;5.73;;
77206;SDS011;66190;50.708;7.906;2023-09-12T02:31:57;13.85;;;6.47;;
77206;SDS011;66190;50.708;7.906;2023-09-12T02:34:23;14.63;;;6.20;;
77206;SDS011;66190;50.708;7.906;2023-09-12T02:36:48;14.57;;;6.38;;
77206;SDS011;66190;50.708;7.906;2023-09-12T02:39:14;14.23;;;5.40;;
77206;SDS011;66190;50.708;7.906;2023-09-12T02:41:39;13.63;;;5.77;;
77206;SDS011;66190;50.708;7.906;2023-09-12T02:44:04;12.33;;;5.63;;
77206;SDS011;66190;50.708;7.906;2023-09-12T02:46:30;13.02;;;6.20;;
77206;SDS011;66190;50.708;7.906;2023-09-12T02:48:56;14.63;;;6.43;;
77206;SDS011;66190;50.708;7.906;2023-09-12T02:51:21;13.70;;;6.30;;
77206;SDS011;66190;50.708;7.906;2023-09-12T02:53:46;15.57;;;6.30;;
77206;SDS011;66190;50.708;7.906;2023-09-12T02:56:12;15.10;;;6.67;;
77206;SDS011;66190;50.708;7.906;2023-09-12T02:58:37;12.50;;;6.50;;
77206;SDS011;66190;50.708;7.906;2023-09-12T03:01:02;13.20;;;6.30;;
77206;SDS011;66190;50.708;7.906;2023-09-12T03:03:30;18.42;;;7.25;;
77206;SDS011;66190;50.708;7.906;2023-09-12T03:05:59;14.73;;;6.30;;
77206;SDS011;66190;50.708;7.906;2023-09-12T03:08:26;13.90;;;6.87;;
77206;SDS011;66190;50.708;7.906;2023-09-12T03:10:57;17.33;;;6.82;;
77206;SDS011;66190;50.708;7.906;2023-09-12T03:13:24;14.93;;;6.47;;
77206;SDS011;66190;50.708;7.906;2023-09-12T03:15:50;12.48;;;6.88;;
77206;SDS011;66190;50.708;7.906;2023-09-12T03:18:16;13.05;;;6.60;;
77206;SDS011;66190;50.708;7.906;2023-09-12T03:20:41;15.27;;;7.07;;
77206;SDS011;66190;50.708;7.906;2023-09-12T03:23:07;14.40;;;6.93;;
77206;SDS011;66190;50.708;7.906;2023-09-12T03:25:38;14.67;;;5.70;;
77206;SDS011;66190;50.708;7.906;2023-09-12T03:28:07;17.15;;;6.50;;
77206;SDS011;66190;50.708;7.906;2023-09-12T03:30:34;15.20;;;6.20;;
77206;SDS011;66190;50.708;7.906;2023-09-12T03:33:00;12.48;;;5.68;;
77206;SDS011;66190;50.708;7.906;2023-09-12T03:35:26;13.93;;;6.33;;
77206;SDS011;66190;50.708;7.906;2023-09-12T03:37:52;11.68;;;6.40;;
77206;SDS011;66190;50.708;7.906;2023-09-12T03:40:17;17.53;;;6.33;;
77206;SDS011;66190;50.708;7.906;2023-09-12T03:42:42;14.60;;;6.80;;
77206;SDS011;66190;50.708;7.906;2023-09-12T03:45:08;15.13;;;6.80;;
77206;SDS011;66190;50.708;7.906;2023-09-12T03:47:34;15.65;;;6.90;;
77206;SDS011;66190;50.708;7.906;2023-09-12T03:49:59;12.87;;;6.87;;
77206;SDS011;66190;50.708;7.906;2023-09-12T03:52:25;15.93;;;8.13;;
77206;SDS011;66190;50.708;7.906;2023-09-12T03:54:50;16.07;;;7.43;;
77206;SDS011;66190;50.708;7.906;2023-09-12T03:57:16;16.42;;;7.75;;
77206;SDS011;66190;50.708;7.906;2023-09-12T03:59:41;16.70;;;8.57;;
77206;SDS011;66190;50.708;7.906;2023-09-12T04:02:06;16.70;;;8.67;;
77206;SDS011;66190;50.708;7.906;2023-09-12T04:04:32;14.97;;;8.60;;
77206;SDS011;66190;50.708;7.906;2023-09-12T04:06:57;19.17;;;8.60;;
77206;SDS011;66190;50.708;7.906;2023-09-12T04:09:22;17.30;;;9.03;;
77206;SDS011;66190;50.708;7.906;2023-09-12T04:11:48;18.02;;;9.10;;
77206;SDS011;66190;50.708;7.906;2023-09-12T04:14:14;18.80;;;10.30;;
77206;SDS011;66190;50.708;7.906;2023-09-12T04:16:39;20.33;;;10.53;;
77206;SDS011;66190;50.708;7.906;2023-09-12T04:19:05;18.83;;;10.70;;
77206;SDS011;66190;50.708;7.906;2023-09-12T04:21:30;21.50;;;12.07;;
77206;SDS011;66190;50.708;7.906;2023-09-12T04:23:56;19.87;;;10.67;;
77206;SDS011;66190;50.708;7.906;2023-09-12T04:26:21;19.77;;;9.53;;
77206;SDS011;66190;50.708;7.906;2023-09-12T04:28:47;23.13;;;10.83;;
77206;SDS011;66190;50.708;7.906;2023-09-12T04:31:12;20.65;;;11.18;;
77206;SDS011;66190;50.708;7.906;2023-09-12T04:33:38;20.53;;;10.57;;
77206;SDS011;66190;50.708;7.906;2023-09-12T04:36:03;22.23;;;11.63;;
77206;SDS011;66190;50.708;7.906;2023-09-12T04:38:32;19.67;;;11.57;;
77206;SDS011;66190;50.708;7.906;2023-09-12T04:40:59;24.40;;;12.95;;
77206;SDS011;66190;50.708;7.906;2023-09-12T04:43:32;22.20;;;13.38;;
77206;SDS011;66190;50.708;7.906;2023-09-12T04:45:57;21.30;;;11.83;;
77206;SDS011;66190;50.708;7.906;2023-09-12T04:48:23;23.73;;;12.43;;
77206;SDS011;66190;50.708;7.906;2023-09-12T04:50:49;25.75;;;14.38;;
77206;SDS011;66190;50.708;7.906;2023-09-12T04:53:14;25.87;;;14.93;;
77206;SDS011;66190;50.708;7.906;2023-09-12T04:55:39;27.03;;;15.30;;
77206;SDS011;66190;50.708;7.906;2023-09-12T04:58:05;24.07;;;14.33;;
77206;SDS011;66190;50.708;7.906;2023-09-12T05:00:31;24.17;;;12.07;;
77206;SDS011;66190;50.708;7.906;2023-09-12T05:02:57;22.95;;;11.48;;
77206;SDS011;66190;50.708;7.906;2023-09-12T05:05:23;19.40;;;11.67;;
77206;SDS011;66190;50.708;7.906;2023-09-12T05:07:48;20.57;;;10.90;;
77206;SDS011;66190;50.708;7.906;2023-09-12T05:10:13;23.43;;;11.63;;
77206;SDS011;66190;50.708;7.906;2023-09-12T05:12:39;20.43;;;12.03;;
77206;SDS011;66190;50.708;7.906;2023-09-12T05:15:04;19.53;;;11.20;;
77206;SDS011;66190;50.708;7.906;2023-09-12T05:17:30;23.80;;;12.40;;
77206;SDS011;66190;50.708;7.906;2023-09-12T05:19:55;21.52;;;11.10;;
77206;SDS011;66190;50.708;7.906;2023-09-12T05:22:21;23.17;;;11.40;;
77206;SDS011;66190;50.708;7.906;2023-09-12T05:24:46;21.67;;;11.77;;
77206;SDS011;66190;50.708;7.906;2023-09-12T05:27:12;20.67;;;11.50;;
77206;SDS011;66190;50.708;7.906;2023-09-12T05:29:37;20.70;;;10.90;;
77206;SDS011;66190;50.708;7.906;2023-09-12T05:32:03;21.77;;;11.90;;
77206;SDS011;66190;50.708;7.906;2023-09-12T05:34:29;25.57;;;12.87;;
77206;SDS011;66190;50.708;7.906;2023-09-12T05:36:56;22.73;;;12.75;;
77206;SDS011;66190;50.708;7.906;2023-09-12T05:39:22;25.13;;;13.73;;
77206;SDS011;66190;50.708;7.906;2023-09-12T05:41:48;23.80;;;13.13;;
77206;SDS011;66190;50.708;7.906;2023-09-12T05:44:14;21.00;;;12.88;;
77206;SDS011;66190;50.708;7.906;2023-09-12T05:46:44;26.40;;;12.90;;
77206;SDS011;66190;50.708;7.906;2023-09-12T05:49:13;26.83;;;13.70;;
77206;SDS011;66190;50.708;7.906;2023-09-12T05:51:39;23.70;;;13.63;;
77206;SDS011;66190;50.708;7.906;2023-09-12T05:54:05;21.03;;;12.47;;
77206;SDS011;66190;50.708;7.906;2023-09-12T05:56:31;26.20;;;13.37;;
77206;SDS011;66190;50.708;7.906;2023-09-12T05:58:56;27.37;;;14.03;;
77206;SDS011;66190;50.708;7.906;2023-09-12T06:01:21;23.87;;;13.80;;
77206;SDS011;66190;50.708;7.906;2023-09-12T06:03:47;25.30;;;12.93;;
77206;SDS011;66190;50.708;7.906;2023-09-12T06:06:12;26.93;;;14.00;;
77206;SDS011;66190;50.708;7.906;2023-09-12T06:08:37;24.90;;;14.47;;
77206;SDS011;66190;50.708;7.906;2023-09-12T06:11:03;23.57;;;14.03;;
77206;SDS011;66190;50.708;7.906;2023-09-12T06:13:29;23.95;;;13.20;;
77206;SDS011;66190;50.708;7.906;2023-09-12T06:15:55;23.67;;;13.43;;
77206;SDS011;66190;50.708;7.906;2023-09-12T06:18:23;23.43;;;13.33;;
77206;SDS011;66190;50.708;7.906;2023-09-12T06:20:49;27.55;;;13.93;;
77206;SDS011;66190;50.708;7.906;2023-09-12T06:23:14;24.30;;;13.13;;
77206;SDS011;66190;50.708;7.906;2023-09-12T06:25:40;24.07;;;13.10;;
77206;SDS011;66190;50.708;7.906;2023-09-12T06:28:05;24.87;;;12.20;;
77206;SDS011;66190;50.708;7.906;2023-09-12T06:30:33;22.38;;;11.77;;
77206;SDS011;66190;50.708;7.906;2023-09-12T06:32:59;21.87;;;12.10;;
77206;SDS011;66190;50.708;7.906;2023-09-12T06:35:24;21.48;;;11.02;;
77206;SDS011;66190;50.708;7.906;2023-09-12T06:37:50;21.80;;;10.53;;
77206;SDS011;66190;50.708;7.906;2023-09-12T06:40:15;20.10;;;10.77;;
77206;SDS011;66190;50.708;7.906;2023-09-12T06:42:41;15.83;;;9.13;;
77206;SDS011;66190;50.708;7.906;2023-09-12T06:45:07;21.08;;;10.52;;
77206;SDS011;66190;50.708;7.906;2023-09-12T06:47:32;21.87;;;11.70;;
77206;SDS011;66190;50.708;7.906;2023-09-12T06:49:57;22.92;;;11.48;;
77206;SDS011;66190;50.708;7.906;2023-09-12T06:52:23;20.67;;;11.97;;
77206;SDS011;66190;50.708;7.906;2023-09-12T06:54:48;23.13;;;12.03;;
77206;SDS011;66190;50.708;7.906;2023-09-12T06:57:14;22.33;;;12.33;;
77206;SDS011;66190;50.708;7.906;2023-09-12T06:59:39;19.07;;;11.13;;
77206;SDS011;66190;50.708;7.906;2023-09-12T07:02:04;22.53;;;11.93;;
77206;SDS011;66190;50.708;7.906;2023-09-12T07:04:30;18.58;;;10.73;;
77206;SDS011;66190;50.708;7.906;2023-09-12T07:06:55;18.63;;;10.17;;
77206;SDS011;66190;50.708;7.906;2023-09-12T07:09:21;19.73;;;10.65;;
77206;SDS011;66190;50.708;7.906;2023-09-12T07:11:47;21.77;;;11.30;;
77206;SDS011;66190;50.708;7.906;2023-09-12T07:14:13;20.80;;;11.70;;
77206;SDS011;66190;50.708;7.906;2023-09-12T07:16:39;18.90;;;12.00;;
77206;SDS011;66190;50.708;7.906;2023-09-12T07:19:04;22.53;;;12.20;;
77206;SDS011;66190;50.708;7.906;2023-09-12T07:21:30;23.97;;;13.50;;
77206;SDS011;66190;50.708;7.906;2023-09-12T07:23:56;24.58;;;13.02;;
77206;SDS011;66190;50.708;7.906;2023-09-12T07:26:22;22.90;;;13.27;;
77206;SDS011;66190;50.708;7.906;2023-09-12T07:28:47;22.52;;;12.57;;
77206;SDS011;66190;50.708;7.906;2023-09-12T07:31:13;24.07;;;13.30;;
77206;SDS011;66190;50.708;7.906;2023-09-12T07:33:39;23.38;;;13.25;;
77206;SDS011;66190;50.708;7.906;2023-09-12T07:36:06;21.60;;;12.85;;
77206;SDS011;66190;50.708;7.906;2023-09-12T07:38:31;22.63;;;13.10;;
77206;SDS011;66190;50.708;7.906;2023-09-12T07:40:57;21.50;;;11.85;;
77206;SDS011;66190;50.708;7.906;2023-09-12T07:43:23;24.00;;;12.95;;
77206;SDS011;66190;50.708;7.906;2023-09-12T07:45:49;22.90;;;11.63;;
77206;SDS011;66190;50.708;7.906;2023-09-12T07:48:19;19.70;;;11.82;;
77206;SDS011;66190;50.708;7.906;2023-09-12T07:50:44;20.63;;;12.03;;
77206;SDS011;66190;50.708;7.906;2023-09-12T07:53:10;16.83;;;10.70;;
77206;SDS011;66190;50.708;7.906;2023-09-12T07:55:36;22.17;;;12.27;;
77206;SDS011;66190;50.708;7.906;2023-09-12T07:58:10;20.48;;;11.32;;
77206;SDS011;66190;50.708;7.906;2023-09-12T08:00:36;23.92;;;11.10;;
77206;SDS011;66190;50.708;7.906;2023-09-12T08:03:02;17.95;;;10.40;;
77206;SDS011;66190;50.708;7.906;2023-09-12T08:05:27;19.50;;;11.00;;
77206;SDS011;66190;50.708;7.906;2023-09-12T08:07:53;19.63;;;9.53;;
77206;SDS011;66190;50.708;7.906;2023-09-12T08:10:18;20.00;;;9.43;;
77206;SDS011;66190;50.708;7.906;2023-09-12T08:12:43;22.73;;;10.53;;
77206;SDS011;66190;50.708;7.906;2023-09-12T08:15:09;19.00;;;9.70;;
77206;SDS011;66190;50.708;7.906;2023-09-12T08:17:34;21.45;;;9.57;;
77206;SDS011;66190;50.708;7.906;2023-09-12T08:20:00;18.00;;;10.80;;
77206;SDS011;66190;50.708;7.906;2023-09-12T08:22:25;24.03;;;12.00;;
77206;SDS011;66190;50.708;7.906;2023-09-12T08:24:51;23.93;;;12.87;;
77206;SDS011;66190;50.708;7.906;2023-09-12T08:27:16;23.90;;;12.60;;
77206;SDS011;66190;50.708;7.906;2023-09-12T08:29:41;26.40;;;14.00;;
77206;SDS011;66190;50.708;7.906;2023-09-12T08:32:09;24.60;;;13.40;;
77206;SDS011;66190;50.708;7.906;2023-09-12T08:34:35;24.55;;;13.50;;
77206;SDS011;66190;50.708;7.906;2023-09-12T08:37:00;23.83;;;13.63;;
77206;SDS011;66190;50.708;7.906;2023-09-12T08:39:26;23.53;;;12.60;;
77206;SDS011;66190;50.708;7.906;2023-09-12T08:41:53;23.85;;;13.20;;
77206;SDS011;66190;50.708;7.906;2023-09-12T08:44:19;24.45;;;13.65;;
77206;SDS011;66190;50.708;7.906;2023-09-12T08:46:45;25.90;;;14.03;;
77206;SDS011;66190;50.708;7.906;2023-09-12T08:49:11;21.55;;;12.55;;
77206;SDS011;66190;50.708;7.906;2023-09-12T08:51:40;25.07;;;13.27;;
77206;SDS011;66190;50.708;7.906;2023-09-12T08:54:06;20.80;;;11.60;;
77206;SDS011;66190;50.708;7.906;2023-09-12T08:56:32;22.08;;;12.90;;
77206;SDS011;66190;50.708;7.906;2023-09-12T08:59:01;23.95;;;12.68;;
77206;SDS011;66190;50.708;7.906;2023-09-12T09:01:27;21.70;;;11.80;;
77206;SDS011;66190;50.708;7.906;2023-09-12T09:03:55;19.23;;;10.87;;
77206;SDS011;66190;50.708;7.906;2023-09-12T09:06:21;20.80;;;11.68;;
77206;SDS011;66190;50.708;7.906;2023-09-12T09:08:48;19.67;;;10.82;;
77206;SDS011;66190;50.708;7.906;2023-09-12T09:11:14;20.60;;;11.07;;
77206;SDS011;66190;50.708;7.906;2023-09-12T09:13:39;20.10;;;11.63;;
77206;SDS011;66190;50.708;7.906;2023-09-12T09:16:15;19.97;;;11.23;;
77206;SDS011;66190;50.708;7.906;2023-09-12T09:18:52;23.55;;;11.32;;
77206;SDS011;66190;50.708;7.906;2023-09-12T09:21:24;22.48;;;11.13;;
77206;SDS011;66190;50.708;7.906;2023-09-12T09:23:52;21.98;;;11.07;;
77206;SDS011;66190;50.708;7.906;2023-09-12T09:26:19;18.52;;;10.45;;
77206;SDS011;66190;50.708;7.906;2023-09-12T09:28:45;17.43;;;9.37;;
77206;SDS011;66190;50.708;7.906;2023-09-12T09:31:11;18.08;;;10.30;;
77206;SDS011;66190;50.708;7.906;2023-09-12T09:33:38;22.45;;;9.93;;
77206;SDS011;66190;50.708;7.906;2023-09-12T09:36:05;19.27;;;10.23;;
77206;SDS011;66190;50.708;7.906;2023-09-12T09:38:31;17.87;;;9.50;;
77206;SDS011;66190;50.708;7.906;2023-09-12T09:40:59;20.13;;;9.50;;
77206;SDS011;66190;50.708;7.906;2023-09-12T09:43:24;20.30;;;11.23;;
77206;SDS011;66190;50.708;7.906;2023-09-12T09:45:50;17.17;;;9.82;;
77206;SDS011;66190;50.708;7.906;2023-09-12T09:48:19;19.57;;;10.23;;
77206;SDS011;66190;50.708;7.906;2023-09-12T09:50:45;19.85;;;10.55;;
77206;SDS011;66190;50.708;7.906;2023-09-12T09:53:11;22.57;;;11.53;;
77206;SDS011;66190;50.708;7.906;2023-09-12T09:55:36;20.65;;;11.23;;
77206;SDS011;66190;50.708;7.906;2023-09-12T09:58:02;19.53;;;11.20;;
77206;SDS011;66190;50.708;7.906;2023-09-12T10:00:30;18.17;;;10.93;;
77206;SDS011;66190;50.708;7.906;2023-09-12T10:02:58;20.20;;;10.70;;
77206;SDS011;66190;50.708;7.906;2023-09-12T10:05:25;20.65;;;11.82;;
77206;SDS011;66190;50.708;7.906;2023-09-12T10:07:53;20.13;;;11.25;;
77206;SDS011;66190;50.708;7.906;2023-09-12T10:10:21;20.35;;;11.32;;
77206;SDS011;66190;50.708;7.906;2023-09-12T10:12:55;19.27;;;10.32;;
77206;SDS011;66190;50.708;7.906;2023-09-12T10:15:22;18.10;;;9.70;;
77206;SDS011;66190;50.708;7.906;2023-09-12T10:17:55;20.33;;;10.43;;
77206;SDS011;66190;50.708;7.906;2023-09-12T10:20:24;19.27;;;9.93;;
77206;SDS011;66190;50.708;7.906;2023-09-12T10:23:03;16.15;;;8.90;;
77206;SDS011;66190;50.708;7.906;2023-09-12T10:25:37;16.97;;;8.87;;
77206;SDS011;66190;50.708;7.906;2023-09-12T10:28:04;20.35;;;9.30;;
77206;SDS011;66190;50.708;7.906;2023-09-12T10:30:30;17.55;;;9.57;;
77206;SDS011;66190;50.708;7.906;2023-09-12T10:32:57;20.52;;;10.30;;
77206;SDS011;66190;50.708;7.906;2023-09-12T10:35:23;19.20;;;9.93;;
77206;SDS011;66190;50.708;7.906;2023-09-12T10:37:48;20.88;;;10.25;;
77206;SDS011;66190;50.708;7.906;2023-09-12T10:40:16;17.50;;;9.52;;
77206;SDS011;66190;50.708;7.906;2023-09-12T10:42:45;20.67;;;10.03;;
77206;SDS011;66190;50.708;7.906;2023-09-12T10:45:12;19.55;;;9.50;;
77206;SDS011;66190;50.708;7.906;2023-09-12T10:47:38;18.00;;;10.38;;
77206;SDS011;66190;50.708;7.906;2023-09-12T10:50:04;16.83;;;9.50;;
77206;SDS011;66190;50.708;7.906;2023-09-12T10:52:31;16.50;;;8.68;;
77206;SDS011;66190;50.708;7.906;2023-09-12T10:54:57;16.17;;;8.23;;
77206;SDS011;66190;50.708;7.906;2023-09-12T10:57:22;19.10;;;8.90;;
77206;SDS011;66190;50.708;7.906;2023-09-12T11:02:38;18.48;;;8.95;;
77206;SDS011;66190;50.708;7.906;2023-09-12T11:07:54;16.73;;;8.50;;
77206;SDS011;66190;50.708;7.906;2023-09-12T11:10:22;25.00;;;10.07;;
77206;SDS011;66190;50.708;7.906;2023-09-12T11:12:57;15.93;;;9.00;;
77206;SDS011;66190;50.708;7.906;2023-09-12T11:15:23;16.15;;;8.88;;
77206;SDS011;66190;50.708;7.906;2023-09-12T11:18:00;19.20;;;9.25;;
77206;SDS011;66190;50.708;7.906;2023-09-12T11:20:26;19.73;;;9.23;;
77206;SDS011;66190;50.708;7.906;2023-09-12T11:22:51;17.10;;;8.90;;
77206;SDS011;66190;50.708;7.906;2023-09-12T11:25:19;15.77;;;8.38;;
77206;SDS011;66190;50.708;7.906;2023-09-12T11:30:16;14.00;;;7.80;;
77206;SDS011;66190;50.708;7.906;2023-09-12T11:32:43;13.55;;;7.30;;
77206;SDS011;66190;50.708;7.906;2023-09-12T11:35:10;14.27;;;7.10;;
77206;SDS011;66190;50.708;7.906;2023-09-12T11:37:36;20.25;;;8.52;;
77206;SDS011;66190;50.708;7.906;2023-09-12T11:40:07;14.93;;;7.30;;
77206;SDS011;66190;50.708;7.906;2023-09-12T11:42:42;15.05;;;7.45;;
77206;SDS011;66190;50.708;7.906;2023-09-12T11:45:09;14.65;;;7.47;;
77206;SDS011;66190;50.708;7.906;2023-09-12T11:47:41;15.30;;;8.35;;
77206;SDS011;66190;50.708;7.906;2023-09-12T11:50:08;14.17;;;8.00;;
77206;SDS011;66190;50.708;7.906;2023-09-12T11:52:57;15.85;;;7.68;;
77206;SDS011;66190;50.708;7.906;2023-09-12T11:55:30;13.35;;;8.10;;
77206;SDS011;66190;50.708;7.906;2023-09-12T11:57:56;13.63;;;7.75;;
77206;SDS011;66190;50.708;7.906;2023-09-12T12:00:22;13.90;;;8.13;;
77206;SDS011;66190;50.708;7.906;2023-09-12T12:02:47;16.37;;;8.47;;
77206;SDS011;66190;50.708;7.906;2023-09-12T12:05:13;14.95;;;7.80;;
77206;SDS011;66190;50.708;7.906;2023-09-12T12:07:38;16.00;;;8.10;;
77206;SDS011;66190;50.708;7.906;2023-09-12T12:10:04;17.83;;;8.57;;
77206;SDS011;66190;50.708;7.906;2023-09-12T12:12:30;18.02;;;8.75;;
77206;SDS011;66190;50.708;7.906;2023-09-12T12:14:55;14.23;;;7.70;;
77206;SDS011;66190;50.708;7.906;2023-09-12T12:17:20;16.27;;;8.17;;
77206;SDS011;66190;50.708;7.906;2023-09-12T12:19:46;14.55;;;7.50;;
77206;SDS011;66190;50.708;7.906;2023-09-12T12:22:12;13.87;;;8.30;;
77206;SDS011;66190;50.708;7.906;2023-09-12T12:24:45;16.17;;;8.67;;
77206;SDS011;66190;50.708;7.906;2023-09-12T12:27:11;17.30;;;8.20;;
77206;SDS011;66190;50.708;7.906;2023-09-12T12:29:37;14.77;;;7.82;;
77206;SDS011;66190;50.708;7.906;2023-09-12T12:32:04;14.50;;;8.20;;
77206;SDS011;66190;50.708;7.906;2023-09-12T12:34:30;14.93;;;7.97;;
77206;SDS011;66190;50.708;7.906;2023-09-12T12:36:55;16.60;;;8.60;;
77206;SDS011;66190;50.708;7.906;2023-09-12T12:39:21;14.60;;;8.00;;
77206;SDS011;66190;50.708;7.906;2023-09-12T12:41:47;19.13;;;8.00;;
77206;SDS011;66190;50.708;7.906;2023-09-12T12:44:13;17.90;;;8.13;;
77206;SDS011;66190;50.708;7.906;2023-09-12T12:49:15;16.90;;;8.48;;
77206;SDS011;66190;50.708;7.906;2023-09-12T12:51:42;18.13;;;7.87;;
77206;SDS011;66190;50.708;7.906;2023-09-12T12:54:07;14.57;;;8.20;;
77206;SDS011;66190;50.708;7.906;2023-09-12T12:56:33;12.88;;;7.32;;
77206;SDS011;66190;50.708;7.906;2023-09-12T12:58:59;15.63;;;8.03;;
77206;SDS011;66190;50.708;7.906;2023-09-12T13:01:29;15.15;;;7.60;;
77206;SDS011;66190;50.708;7.906;2023-09-12T13:03:55;18.00;;;8.00;;
77206;SDS011;66190;50.708;7.906;2023-09-12T13:06:21;14.50;;;7.47;;
77206;SDS011;66190;50.708;7.906;2023-09-12T13:08:47;13.40;;;7.90;;
77206;SDS011;66190;50.708;7.906;2023-09-12T13:11:14;12.32;;;7.72;;
77206;SDS011;66190;50.708;7.906;2023-09-12T13:13:41;15.25;;;7.70;;
77206;SDS011;66190;50.708;7.906;2023-09-12T13:16:12;16.90;;;8.65;;
77206;SDS011;66190;50.708;7.906;2023-09-12T13:18:38;16.87;;;8.47;;
77206;SDS011;66190;50.708;7.906;2023-09-12T13:21:05;17.90;;;8.85;;
77206;SDS011;66190;50.708;7.906;2023-09-12T13:23:33;17.45;;;9.13;;
77206;SDS011;66190;50.708;7.906;2023-09-12T13:25:59;15.38;;;8.35;;
77206;SDS011;66190;50.708;7.906;2023-09-12T13:28:25;23.30;;;10.13;;
77206;SDS011;66190;50.708;7.906;2023-09-12T13:30:51;16.67;;;8.33;;
77206;SDS011;66190;50.708;7.906;2023-09-12T13:33:17;17.23;;;9.13;;
77206;SDS011;66190;50.708;7.906;2023-09-12T13:35:42;19.53;;;9.23;;
77206;SDS011;66190;50.708;7.906;2023-09-12T13:38:08;16.10;;;8.48;;
77206;SDS011;66190;50.708;7.906;2023-09-12T13:40:39;17.77;;;9.07;;
77206;SDS011;66190;50.708;7.906;2023-09-12T13:43:05;19.33;;;8.93;;
77206;SDS011;66190;50.708;7.906;2023-09-12T13:45:31;17.83;;;8.63;;
77206;SDS011;66190;50.708;7.906;2023-09-12T13:47:58;16.10;;;8.52;;
77206;SDS011;66190;50.708;7.906;2023-09-12T13:50:27;19.10;;;8.57;;
77206;SDS011;66190;50.708;7.906;2023-09-12T13:52:57;16.63;;;8.80;;
77206;SDS011;66190;50.708;7.906;2023-09-12T13:55:24;17.05;;;8.98;;
77206;SDS011;66190;50.708;7.906;2023-09-12T13:57:50;17.58;;;8.60;;
77206;SDS011;66190;50.708;7.906;2023-09-12T14:00:15;15.13;;;8.73;;
77206;SDS011;66190;50.708;7.906;2023-09-12T14:02:41;16.50;;;8.20;;
77206;SDS011;66190;50.708;7.906;2023-09-12T14:05:06;16.20;;;8.43;;
77206;SDS011;66190;50.708;7.906;2023-09-12T14:07:32;16.00;;;8.40;;
77206;SDS011;66190;50.708;7.906;2023-09-12T14:09:57;16.23;;;8.50;;
77206;SDS011;66190;50.708;7.906;2023-09-12T14:12:23;19.80;;;9.53;;
77206;SDS011;66190;50.708;7.906;2023-09-12T14:14:49;18.15;;;9.05;;
77206;SDS011;66190;50.708;7.906;2023-09-12T14:17:15;19.97;;;9.63;;
77206;SDS011;66190;50.708;7.906;2023-09-12T14:19:40;18.02;;;9.75;;
77206;SDS011;66190;50.708;7.906;2023-09-12T14:22:06;17.77;;;9.93;;
77206;SDS011;66190;50.708;7.906;2023-09-12T14:24:31;15.50;;;10.02;;
77206;SDS011;66190;50.708;7.906;2023-09-12T14:26:57;15.63;;;9.77;;
77206;SDS011;66190;50.708;7.906;2023-09-12T14:29:22;14.80;;;9.73;;
77206;SDS011;66190;50.708;7.906;2023-09-12T14:31:49;17.40;;;9.32;;
77206;SDS011;66190;50.708;7.906;2023-09-12T14:34:18;14.10;;;9.10;;
77206;SDS011;66190;50.708;7.906;2023-09-12T14:36:44;19.00;;;9.67;;
77206;SDS011;66190;50.708;7.906;2023-09-12T14:39:11;17.05;;;9.55;;
77206;SDS011;66190;50.708;7.906;2023-09-12T14:41:37;16.13;;;10.45;;
77206;SDS011;66190;50.708;7.906;2023-09-12T14:44:02;17.53;;;9.03;;